Time;durP1;ratioP1;P1;durP2;ratioP2;P2;SDS_P1;SDS_P2;PMS_P1;PMS_P2;Temp;Humidity;BMP_temperature;BMP_pressure;BME280_temperature;BME280_humidity;BME280_pressure;Samples;Min_cycle;Max_cycle;Signal;HPM_P1;HPM_P2
2021/07/17 00:00:37;;;;;;;4.85;3.13;;;24.10;63.00;;;;;;4928339;29;20456;-73
2021/07/17 00:03:05;;;;;;;3.80;3.47;;;24.00;62.90;;;;;;4928504;29;20052;-74
2021/07/17 00:05:32;;;;;;;3.25;2.92;;;24.00;62.90;;;;;;4928679;29;20035;-73
2021/07/17 00:07:58;;;;;;;3.60;3.15;;;24.00;62.90;;;;;;4927338;29;20067;-73
2021/07/17 00:10:26;;;;;;;3.30;3.00;;;23.90;62.80;;;;;;4929407;29;20074;-73
2021/07/17 00:12:53;;;;;;;3.40;2.70;;;23.90;62.90;;;;;;4930927;29;20431;-73
2021/07/17 00:15:22;;;;;;;4.03;3.00;;;23.90;63.00;;;;;;4931834;29;20027;-77
2021/07/17 00:17:48;;;;;;;3.90;3.20;;;23.90;63.00;;;;;;4932771;29;20058;-74
2021/07/17 00:20:15;;;;;;;4.63;3.28;;;23.90;63.00;;;;;;4932534;29;20031;-75
2021/07/17 00:22:41;;;;;;;3.55;3.25;;;23.90;63.10;;;;;;4933054;29;20036;-75
2021/07/17 00:25:10;;;;;;;5.10;3.25;;;23.90;63.10;;;;;;4931875;29;20051;-75
2021/07/17 00:27:36;;;;;;;4.05;2.95;;;23.80;63.00;;;;;;4930981;29;20031;-75
2021/07/17 00:30:04;;;;;;;3.97;2.90;;;23.80;63.00;;;;;;4931487;29;20028;-76
2021/07/17 00:32:30;;;;;;;3.72;3.03;;;23.80;63.00;;;;;;4930802;29;20024;-75
2021/07/17 00:34:56;;;;;;;3.75;3.03;;;23.70;62.90;;;;;;4931675;29;20054;-75
2021/07/17 00:37:22;;;;;;;3.38;2.72;;;23.70;62.90;;;;;;4932128;29;20035;-75
2021/07/17 00:39:48;;;;;;;6.38;3.22;;;23.70;63.00;;;;;;4930725;29;20027;-74
2021/07/17 00:42:14;;;;;;;4.18;2.92;;;23.70;63.00;;;;;;4931533;29;20039;-73
2021/07/17 00:44:40;;;;;;;4.60;3.47;;;23.60;62.90;;;;;;4930569;29;20126;-74
2021/07/17 00:47:07;;;;;;;5.05;2.92;;;23.60;62.90;;;;;;4930750;29;20068;-73
2021/07/17 00:49:33;;;;;;;3.15;2.85;;;23.60;63.00;;;;;;4932196;29;20036;-74
2021/07/17 00:51:59;;;;;;;5.22;3.08;;;23.50;62.90;;;;;;4931728;29;20459;-73
2021/07/17 00:54:31;;;;;;;4.53;2.88;;;23.50;62.90;;;;;;4930419;29;20082;-74
2021/07/17 00:56:59;;;;;;;4.60;3.30;;;23.50;63.00;;;;;;4931381;29;20396;-74
2021/07/17 00:59:28;;;;;;;3.47;2.70;;;23.40;62.80;;;;;;4930651;29;20472;-74
2021/07/17 01:01:57;;;;;;;3.15;2.85;;;23.40;62.90;;;;;;4931090;29;20479;-75
2021/07/17 01:04:24;;;;;;;3.50;3.03;;;23.40;62.90;;;;;;4930717;29;20399;-75
2021/07/17 01:06:51;;;;;;;3.47;3.15;;;23.30;62.80;;;;;;4931876;29;20039;-73
2021/07/17 01:09:17;;;;;;;4.43;3.45;;;23.30;62.80;;;;;;4931665;29;20043;-74
2021/07/17 01:11:43;;;;;;;4.18;3.17;;;23.30;62.90;;;;;;4931311;29;20476;-73
2021/07/17 01:14:10;;;;;;;3.50;3.08;;;23.20;62.80;;;;;;4931778;29;20114;-73
2021/07/17 01:16:37;;;;;;;4.70;3.13;;;23.20;62.80;;;;;;4931214;29;20038;-73
2021/07/17 01:19:03;;;;;;;3.13;2.70;;;23.20;62.90;;;;;;4945968;29;20395;-75
2021/07/17 01:21:30;;;;;;;4.30;2.83;;;23.20;62.90;;;;;;4931666;29;20031;-73
2021/07/17 01:23:56;;;;;;;3.75;2.95;;;23.10;62.80;;;;;;4931270;29;20075;-73
2021/07/17 01:26:23;;;;;;;3.38;2.70;;;23.10;62.80;;;;;;4930517;29;20063;-75
2021/07/17 01:28:48;;;;;;;3.30;2.90;;;23.00;62.70;;;;;;4929906;29;20046;-73
2021/07/17 01:31:15;;;;;;;5.28;3.00;;;23.00;62.80;;;;;;4922274;29;20028;-73
2021/07/17 01:33:41;;;;;;;3.55;2.58;;;22.90;62.70;;;;;;4913853;29;20488;-74
2021/07/17 01:36:07;;;;;;;3.00;2.33;;;22.90;62.70;;;;;;4913647;29;20083;-75
2021/07/17 01:38:33;;;;;;;3.45;2.97;;;22.90;62.80;;;;;;4917025;29;20040;-74
2021/07/17 01:40:59;;;;;;;3.45;2.90;;;22.80;62.60;;;;;;4930484;29;20038;-74
2021/07/17 01:43:25;;;;;;;2.83;2.50;;;22.80;62.90;;;;;;4931644;29;20046;-77
2021/07/17 01:45:56;;;;;;;3.33;2.90;;;22.80;62.80;;;;;;4926724;29;20476;-74
2021/07/17 01:48:22;;;;;;;3.97;2.95;;;22.70;62.70;;;;;;4916702;29;20172;-75
2021/07/17 01:50:48;;;;;;;5.00;2.58;;;22.70;62.70;;;;;;4916301;29;20044;-74
2021/07/17 01:53:14;;;;;;;2.95;2.63;;;22.70;62.80;;;;;;4916328;29;20500;-75
2021/07/17 01:55:40;;;;;;;3.03;2.70;;;22.60;62.70;;;;;;4915527;29;20056;-74
2021/07/17 01:58:08;;;;;;;3.20;2.90;;;22.60;62.80;;;;;;4916382;29;20043;-75
2021/07/17 02:00:34;;;;;;;2.97;2.33;;;22.60;62.80;;;;;;4916349;29;20043;-75
2021/07/17 02:03:00;;;;;;;3.45;2.75;;;22.50;62.70;;;;;;4930292;29;20055;-74
2021/07/17 02:05:26;;;;;;;3.55;2.75;;;22.50;62.70;;;;;;4916472;29;20032;-74
2021/07/17 02:07:53;;;;;;;4.22;2.67;;;22.50;62.90;;;;;;4916152;29;20040;-74
2021/07/17 02:10:22;;;;;;;3.97;3.08;;;22.40;62.70;;;;;;4916205;29;20024;-76
2021/07/17 02:13:04;;;;;;;4.30;2.67;;;22.50;63.00;;;;;;4916260;29;20040;-74
2021/07/17 02:15:33;;;;;;;2.80;2.50;;;22.40;62.90;;;;;;4916492;29;20032;-74
2021/07/17 02:17:59;;;;;;;3.58;2.72;;;22.40;62.90;;;;;;4916148;29;20098;-76
2021/07/17 02:20:26;;;;;;;3.15;2.72;;;22.40;63.00;;;;;;4899261;29;20369;-74
2021/07/17 02:22:52;;;;;;;3.25;2.38;;;22.30;62.90;;;;;;4916258;29;20051;-75
2021/07/17 02:25:19;;;;;;;3.25;2.67;;;22.30;62.90;;;;;;4916112;29;20036;-76
2021/07/17 02:27:45;;;;;;;3.13;2.75;;;22.20;62.80;;;;;;4916028;29;20028;-74
2021/07/17 02:30:11;;;;;;;2.80;2.33;;;22.20;62.80;;;;;;4915802;29;20043;-74
2021/07/17 02:32:37;;;;;;;3.10;2.78;;;22.20;62.80;;;;;;4930118;29;20034;-75
2021/07/17 02:35:04;;;;;;;2.50;2.30;;;22.10;62.70;;;;;;4914786;29;20051;-74
2021/07/17 02:37:30;;;;;;;3.88;2.60;;;22.10;62.80;;;;;;4915668;29;20511;-73
2021/07/17 02:39:56;;;;;;;2.88;1.90;;;22.10;62.80;;;;;;4916126;29;20128;-74
2021/07/17 02:42:22;;;;;;;3.45;2.22;;;22.10;62.90;;;;;;4915675;29;20131;-75
2021/07/17 02:44:49;;;;;;;2.90;2.58;;;22.10;63.00;;;;;;4915479;29;20487;-76
2021/07/17 02:47:16;;;;;;;4.53;2.60;;;22.00;62.80;;;;;;4929979;29;20032;-75
2021/07/17 02:49:43;;;;;;;3.42;2.35;;;22.00;62.90;;;;;;4915133;29;20036;-75
2021/07/17 02:52:09;;;;;;;3.13;2.67;;;22.00;63.00;;;;;;4916138;29;20058;-76
2021/07/17 02:54:35;;;;;;;3.22;2.88;;;21.90;62.80;;;;;;4916027;29;20123;-75
2021/07/17 02:57:01;;;;;;;4.60;2.72;;;21.90;62.90;;;;;;4915742;29;20118;-74
2021/07/17 02:59:27;;;;;;;3.60;2.80;;;21.90;63.00;;;;;;4915621;29;20044;-74
2021/07/17 03:01:53;;;;;;;3.40;2.65;;;21.90;63.00;;;;;;4915096;29;20039;-74
2021/07/17 03:04:18;;;;;;;4.20;2.53;;;21.90;63.00;;;;;;4915159;29;20436;-74
2021/07/17 03:06:44;;;;;;;4.32;2.30;;;21.80;62.90;;;;;;4915543;29;20051;-74
2021/07/17 03:09:10;;;;;;;2.70;2.42;;;21.80;63.00;;;;;;4915160;29;20075;-74
2021/07/17 03:11:36;;;;;;;2.80;2.50;;;21.80;63.00;;;;;;4915410;29;20043;-75
2021/07/17 03:14:04;;;;;;;2.97;2.28;;;21.80;63.10;;;;;;4913650;29;20042;-75
2021/07/17 03:16:31;;;;;;;3.15;2.40;;;21.80;63.10;;;;;;4915137;29;20027;-75
2021/07/17 03:18:59;;;;;;;3.17;2.83;;;21.70;63.00;;;;;;4914971;29;20059;-74
2021/07/17 03:21:25;;;;;;;3.67;2.67;;;21.70;63.10;;;;;;4915155;29;20032;-74
2021/07/17 03:23:51;;;;;;;4.72;2.72;;;21.70;63.10;;;;;;4915336;29;20135;-75
2021/07/17 03:26:17;;;;;;;3.13;2.35;;;21.70;63.10;;;;;;4913942;29;20103;-75
2021/07/17 03:28:43;;;;;;;3.65;1.95;;;21.70;63.10;;;;;;4914927;29;20040;-74
2021/07/17 03:31:10;;;;;;;2.58;2.38;;;21.70;63.20;;;;;;4913657;29;20032;-73
2021/07/17 03:33:36;;;;;;;2.83;2.30;;;21.60;63.00;;;;;;4928810;29;20043;-73
2021/07/17 03:36:04;;;;;;;2.75;2.40;;;21.60;63.00;;;;;;4915581;29;20033;-74
2021/07/17 03:38:30;;;;;;;3.72;2.75;;;21.60;63.10;;;;;;4913702;29;20484;-74
2021/07/17 03:40:56;;;;;;;4.43;2.38;;;21.60;63.10;;;;;;4914798;29;20036;-73
2021/07/17 03:43:22;;;;;;;2.50;2.10;;;21.60;63.10;;;;;;4914773;29;20048;-74
2021/07/17 03:45:48;;;;;;;2.85;2.30;;;21.60;63.20;;;;;;4914352;29;20040;-73
2021/07/17 03:48:14;;;;;;;5.90;2.55;;;21.60;63.20;;;;;;4913644;29;20028;-74
2021/07/17 03:50:40;;;;;;;3.28;2.25;;;21.50;63.00;;;;;;4913893;29;20043;-73
2021/07/17 03:53:06;;;;;;;2.65;2.35;;;21.50;63.00;;;;;;4915303;29;20543;-74
2021/07/17 03:55:32;;;;;;;3.65;2.40;;;21.50;63.00;;;;;;4914517;29;20480;-73
2021/07/17 03:57:58;;;;;;;3.05;2.72;;;21.50;63.10;;;;;;4914445;29;20067;-74
2021/07/17 04:00:24;;;;;;;2.40;2.20;;;21.50;63.10;;;;;;4915136;29;20067;-73
2021/07/17 04:02:50;;;;;;;3.30;2.28;;;21.50;63.20;;;;;;4914048;29;20131;-74
2021/07/17 04:05:19;;;;;;;3.30;2.60;;;21.40;63.00;;;;;;4914187;29;20032;-73
2021/07/17 04:07:46;;;;;;;3.40;2.30;;;21.50;63.20;;;;;;4914805;29;20028;-74
2021/07/17 04:10:13;;;;;;;2.95;2.35;;;21.40;63.10;;;;;;4914447;29;20024;-74
2021/07/17 04:12:40;;;;;;;2.35;2.15;;;21.50;63.30;;;;;;4914525;29;20103;-74
2021/07/17 04:15:07;;;;;;;2.58;2.28;;;21.50;63.30;;;;;;4914756;29;20024;-74
2021/07/17 04:17:33;;;;;;;2.78;2.47;;;21.40;63.20;;;;;;4914573;29;20032;-75
2021/07/17 04:19:59;;;;;;;4.00;2.17;;;21.40;63.20;;;;;;4914567;29;20035;-76
2021/07/17 04:22:25;;;;;;;5.10;2.10;;;21.40;63.20;;;;;;4897266;29;20381;-74
2021/07/17 04:24:51;;;;;;;2.90;2.42;;;21.40;63.20;;;;;;4913511;29;20032;-74
2021/07/17 04:27:17;;;;;;;3.97;2.67;;;21.40;63.20;;;;;;4912964;29;20028;-75
2021/07/17 04:29:43;;;;;;;3.03;2.55;;;21.40;63.20;;;;;;4914766;29;20111;-74
2021/07/17 04:32:09;;;;;;;2.63;2.20;;;21.40;63.20;;;;;;4914719;29;20472;-73
2021/07/17 04:34:37;;;;;;;3.00;2.47;;;21.40;63.20;;;;;;4913404;29;20024;-74
2021/07/17 04:37:03;;;;;;;4.90;2.58;;;21.40;63.30;;;;;;4912869;29;20111;-76
2021/07/17 04:39:29;;;;;;;3.65;2.25;;;21.40;63.20;;;;;;4914169;29;20654;-74
2021/07/17 04:41:55;;;;;;;3.95;2.72;;;21.40;63.30;;;;;;4913985;29;20083;-74
2021/07/17 04:44:21;;;;;;;4.63;2.08;;;21.40;63.30;;;;;;4914264;29;20059;-75
2021/07/17 04:46:47;;;;;;;3.05;2.30;;;21.40;63.30;;;;;;4913873;29;20465;-74
2021/07/17 04:49:12;;;;;;;3.40;2.45;;;21.40;63.30;;;;;;4909003;29;20028;-74
2021/07/17 04:51:38;;;;;;;3.33;2.55;;;21.40;63.30;;;;;;4911185;29;20072;-74
2021/07/17 04:54:04;;;;;;;3.30;2.10;;;21.40;63.30;;;;;;4909751;29;20412;-74
2021/07/17 04:56:30;;;;;;;2.30;2.00;;;21.40;63.30;;;;;;4910671;29;20040;-74
2021/07/17 04:58:56;;;;;;;3.05;2.42;;;21.40;63.30;;;;;;4926941;29;20489;-74
2021/07/17 05:01:22;;;;;;;4.75;2.17;;;21.40;63.30;;;;;;4931656;29;20043;-75
2021/07/17 05:03:48;;;;;;;2.58;2.15;;;21.40;63.30;;;;;;4917763;29;20064;-74
2021/07/17 05:06:15;;;;;;;2.50;2.17;;;21.40;63.30;;;;;;4913139;29;20071;-74
2021/07/17 05:08:41;;;;;;;2.55;2.30;;;21.40;63.30;;;;;;4924815;29;20513;-74
2021/07/17 05:11:07;;;;;;;3.45;2.42;;;21.40;63.30;;;;;;4931790;29;20031;-74
2021/07/17 05:13:34;;;;;;;3.58;2.30;;;21.40;63.30;;;;;;4931766;29;20094;-73
2021/07/17 05:16:00;;;;;;;4.57;2.42;;;21.50;64.00;;;;;;4931264;29;20032;-74
2021/07/17 05:18:26;;;;;;;2.63;2.17;;;21.50;63.40;;;;;;4929703;29;20043;-72
2021/07/17 05:20:52;;;;;;;3.22;2.70;;;21.50;63.40;;;;;;4930267;29;20035;-73
2021/07/17 05:23:18;;;;;;;3.85;2.20;;;21.60;63.50;;;;;;4931321;29;20040;-74
2021/07/17 05:25:44;;;;;;;3.85;2.60;;;21.60;63.50;;;;;;4930835;29;20034;-74
2021/07/17 05:28:10;;;;;;;2.72;2.47;;;21.60;63.40;;;;;;4931445;29;20479;-76
2021/07/17 05:30:37;;;;;;;3.17;2.15;;;21.60;63.30;;;;;;4931556;29;20419;-75
2021/07/17 05:33:03;;;;;;;2.45;1.95;;;21.70;63.40;;;;;;4930165;29;20425;-76
2021/07/17 05:35:30;;;;;;;3.35;2.33;;;21.70;63.40;;;;;;4931142;29;20047;-76
2021/07/17 05:37:59;;;;;;;4.05;2.40;;;21.80;63.50;;;;;;4931003;29;20032;-75
2021/07/17 05:40:26;;;;;;;3.45;2.15;;;21.80;63.50;;;;;;4931596;29;20039;-77
2021/07/17 05:42:54;;;;;;;5.35;2.60;;;21.90;63.60;;;;;;4929671;29;20043;-75
2021/07/17 05:45:20;;;;;;;2.60;2.28;;;21.90;63.50;;;;;;4929367;29;20031;-75
2021/07/17 05:47:46;;;;;;;3.53;2.00;;;21.90;63.50;;;;;;4930753;29;20039;-75
2021/07/17 05:50:12;;;;;;;2.63;2.40;;;21.90;63.40;;;;;;4929434;29;20035;-77
2021/07/17 05:52:38;;;;;;;2.92;1.90;;;22.00;63.50;;;;;;4930697;29;20063;-73
2021/07/17 05:55:05;;;;;;;3.30;2.33;;;22.00;63.50;;;;;;4931086;29;20606;-74
2021/07/17 05:57:34;;;;;;;3.97;2.55;;;22.00;63.50;;;;;;4930302;29;20051;-73
2021/07/17 06:00:00;;;;;;;2.58;2.15;;;22.00;63.40;;;;;;4930995;29;20040;-73
2021/07/17 06:02:26;;;;;;;2.22;2.03;;;22.10;63.60;;;;;;4927606;29;20127;-72
2021/07/17 06:04:53;;;;;;;2.67;2.22;;;22.10;63.60;;;;;;4928774;29;20038;-72
2021/07/17 06:07:20;;;;;;;4.20;2.45;;;22.10;63.60;;;;;;4931438;29;20542;-74
2021/07/17 06:09:46;;;;;;;2.75;2.13;;;22.20;63.70;;;;;;4928555;29;20040;-72
2021/07/17 06:12:13;;;;;;;3.15;1.95;;;22.20;63.70;;;;;;4928794;29;20043;-73
2021/07/17 06:14:39;;;;;;;3.30;2.35;;;22.30;63.90;;;;;;4930898;29;20108;-74
2021/07/17 06:17:09;;;;;;;5.82;2.97;;;22.30;63.90;;;;;;4930469;29;20471;-75
2021/07/17 06:19:35;;;;;;;6.38;2.58;;;22.40;64.00;;;;;;4912091;29;20260;-74
2021/07/17 06:22:01;;;;;;;7.35;3.35;;;22.40;63.90;;;;;;4911929;29;20394;-76
2021/07/17 06:24:27;;;;;;;5.28;3.05;;;22.50;63.80;;;;;;4930605;29;20130;-75
2021/07/17 06:26:53;;;;;;;3.17;2.83;;;22.60;63.80;;;;;;4930867;29;20091;-75
2021/07/17 06:29:19;;;;;;;3.40;2.50;;;22.60;63.70;;;;;;4929374;29;20031;-75
2021/07/17 06:31:45;;;;;;;4.55;2.60;;;22.70;63.80;;;;;;4930468;29;20035;-75
2021/07/17 06:34:11;;;;;;;4.10;2.78;;;22.80;63.90;;;;;;4929736;29;20045;-75
2021/07/17 06:36:37;;;;;;;2.92;2.60;;;22.90;64.00;;;;;;4928681;29;20709;-75
2021/07/17 06:39:03;;;;;;;2.30;2.10;;;23.00;64.10;;;;;;4928995;29;20502;-76
2021/07/17 06:41:29;;;;;;;5.40;2.88;;;23.10;64.20;;;;;;4930299;29;20118;-75
2021/07/17 06:43:55;;;;;;;5.00;3.20;;;23.20;64.20;;;;;;4930262;29;20126;-74
2021/07/17 06:46:21;;;;;;;5.18;3.00;;;23.30;64.10;;;;;;4930200;29;20126;-73
2021/07/17 06:48:48;;;;;;;4.38;2.65;;;23.50;64.10;;;;;;4929270;29;20038;-73
2021/07/17 06:51:14;;;;;;;5.22;2.50;;;23.70;64.20;;;;;;4928176;29;20051;-72
2021/07/17 06:53:40;;;;;;;5.93;3.25;;;23.90;64.30;;;;;;4928275;29;20419;-74
2021/07/17 06:56:06;;;;;;;3.83;2.80;;;24.00;64.10;;;;;;4928525;29;20051;-73
2021/07/17 06:58:32;;;;;;;3.25;2.33;;;24.30;64.20;;;;;;4924300;29;20091;-73
2021/07/17 07:00:59;;;;;;;6.75;2.60;;;24.50;64.10;;;;;;4929827;29;20479;-74
2021/07/17 07:03:25;;;;;;;5.10;2.88;;;24.80;64.10;;;;;;4927159;29;20122;-74
2021/07/17 07:05:52;;;;;;;4.95;3.28;;;25.00;64.00;;;;;;4929639;29;20562;-73
2021/07/17 07:08:18;;;;;;;5.85;2.75;;;25.30;63.60;;;;;;4920863;29;20038;-73
2021/07/17 07:10:44;;;;;;;4.78;2.67;;;25.50;63.10;;;;;;4909371;29;20043;-73
2021/07/17 07:13:11;;;;;;;3.80;2.65;;;25.70;62.60;;;;;;4917858;29;20484;-74
2021/07/17 07:15:37;;;;;;;4.18;2.80;;;25.90;62.10;;;;;;4929178;29;20062;-74
2021/07/17 07:18:05;;;;;;;4.25;2.35;;;26.10;61.80;;;;;;4922955;29;20040;-74
2021/07/17 07:20:31;;;;;;;8.27;3.15;;;26.40;61.40;;;;;;4910075;29;20034;-74
2021/07/17 07:22:57;;;;;;;4.32;2.45;;;26.60;61.00;;;;;;4917663;29;20050;-73
2021/07/17 07:25:23;;;;;;;6.05;2.83;;;26.80;60.50;;;;;;4928763;29;20383;-74
2021/07/17 07:27:49;;;;;;;5.75;2.67;;;27.10;60.10;;;;;;4928680;29;20454;-74
2021/07/17 07:30:16;;;;;;;6.22;3.28;;;27.30;59.50;;;;;;4928363;29;20126;-74
2021/07/17 07:32:42;;;;;;;5.47;3.10;;;27.50;58.90;;;;;;4928552;29;20035;-73
2021/07/17 07:35:08;;;;;;;3.45;2.78;;;27.70;58.40;;;;;;4928735;29;20426;-74
2021/07/17 07:37:35;;;;;;;6.40;3.00;;;27.90;57.80;;;;;;4928766;29;20048;-74
2021/07/17 07:40:01;;;;;;;4.32;2.45;;;28.10;57.30;;;;;;4927411;29;20044;-73
2021/07/17 07:42:27;;;;;;;2.97;2.30;;;28.40;57.00;;;;;;4927639;29;20044;-75
2021/07/17 07:44:54;;;;;;;5.30;2.67;;;28.60;56.40;;;;;;4928040;29;20042;-74
2021/07/17 07:47:20;;;;;;;6.03;2.88;;;28.80;56.10;;;;;;4928407;29;20031;-74
2021/07/17 07:49:48;;;;;;;3.40;2.55;;;29.00;55.70;;;;;;4928815;29;20120;-74
2021/07/17 07:52:14;;;;;;;4.53;2.80;;;29.20;55.20;;;;;;4928930;29;20130;-74
2021/07/17 07:54:40;;;;;;;5.75;2.30;;;29.40;54.70;;;;;;4926685;29;20262;-75
2021/07/17 07:57:06;;;;;;;4.18;2.53;;;29.60;54.20;;;;;;4943527;29;20184;-74
2021/07/17 07:59:33;;;;;;;4.20;2.60;;;29.80;53.70;;;;;;4943301;29;20031;-73
2021/07/17 08:01:58;;;;;;;5.85;2.85;;;30.00;53.30;;;;;;4925703;29;20074;-74
2021/07/17 08:04:25;;;;;;;4.55;2.95;;;30.20;52.80;;;;;;4928799;29;20059;-74
2021/07/17 08:06:50;;;;;;;4.70;2.72;;;30.40;52.40;;;;;;4923630;29;20064;-74
2021/07/17 08:09:16;;;;;;;4.47;2.83;;;30.60;51.90;;;;;;4908752;29;20032;-74
2021/07/17 08:11:42;;;;;;;4.60;2.67;;;30.80;51.60;;;;;;4908910;29;20648;-74
2021/07/17 08:14:08;;;;;;;3.78;3.40;;;31.00;51.00;;;;;;4926237;29;20051;-74
2021/07/17 08:16:35;;;;;;;7.10;4.28;;;31.20;50.50;;;;;;4928413;29;20032;-74
2021/07/17 08:19:01;;;;;;;7.47;3.47;;;31.30;50.00;;;;;;4928856;29;20036;-73
2021/07/17 08:21:27;;;;;;;9.13;4.18;;;31.60;49.80;;;;;;4913741;29;20036;-73
2021/07/17 08:23:53;;;;;;;5.03;3.67;;;31.80;49.30;;;;;;4922491;29;20130;-74
2021/07/17 08:26:19;;;;;;;7.28;4.07;;;31.90;48.70;;;;;;4907218;29;20075;-75
2021/07/17 08:28:45;;;;;;;9.43;4.03;;;32.20;48.40;;;;;;4919859;29;20063;-74
2021/07/17 08:31:11;;;;;;;7.88;3.90;;;32.40;47.80;;;;;;4928188;29;20377;-73
2021/07/17 08:33:37;;;;;;;5.53;4.00;;;32.60;47.30;;;;;;4928380;29;20032;-75
2021/07/17 08:36:03;;;;;;;9.45;5.03;;;32.70;46.80;;;;;;4915078;29;20233;-74
2021/07/17 08:38:29;;;;;;;6.63;3.80;;;32.90;46.30;;;;;;4924253;29;20039;-76
2021/07/17 08:40:57;;;;;;;8.10;3.45;;;33.10;45.90;;;;;;4911658;29;20036;-74
2021/07/17 08:43:24;;;;;;;7.72;3.55;;;33.30;45.50;;;;;;4937823;29;20126;-76
2021/07/17 08:45:51;;;;;;;6.60;3.80;;;33.40;45.00;;;;;;4930586;29;20038;-74
2021/07/17 08:48:20;;;;;;;6.88;3.97;;;33.50;44.80;;;;;;4931850;29;20028;-74
2021/07/17 08:50:47;;;;;;;7.68;3.95;;;33.60;44.50;;;;;;4946546;29;20039;-73
2021/07/17 08:53:16;;;;;;;6.75;3.80;;;33.70;44.20;;;;;;4930749;29;20031;-74
2021/07/17 08:55:42;;;;;;;6.50;4.85;;;33.70;44.10;;;;;;4931909;29;20334;-75
2021/07/17 08:58:08;;;;;;;6.13;4.18;;;33.70;43.90;;;;;;4931290;29;20036;-76
2021/07/17 09:00:38;;;;;;;12.95;6.80;;;33.70;43.80;;;;;;4932343;29;20522;-74
2021/07/17 09:03:19;;;;;;;9.38;5.10;;;33.70;43.80;;;;;;4931863;29;20510;-74
2021/07/17 09:05:47;;;;;;;10.73;5.95;;;33.60;44.10;;;;;;4931705;29;20608;-78
2021/07/17 09:08:18;;;;;;;8.73;6.22;;;33.50;44.20;;;;;;4930782;29;20074;-77
2021/07/17 09:10:46;;;;;;;8.65;5.38;;;33.30;44.50;;;;;;4946158;29;20061;-73
2021/07/17 09:13:20;;;;;;;9.60;5.32;;;33.10;45.00;;;;;;4946589;29;20040;-74
2021/07/17 09:15:53;;;;;;;9.30;5.32;;;32.90;45.70;;;;;;4929875;29;20040;-73
2021/07/17 09:18:28;;;;;;;8.55;5.22;;;32.60;46.30;;;;;;4931385;29;20032;-77
2021/07/17 09:21:21;;;;;;;4.97;3.65;;;32.40;47.10;;;;;;4929469;29;20040;-75
2021/07/17 09:23:51;;;;;;;;;;;32.10;47.00;;;;;;4931548;29;20180;-74
2021/07/17 09:26:19;;;;;;;5.60;3.40;;;32.00;47.60;;;;;;4932950;29;19919;-75
2021/07/17 09:29:02;;;;;;;5.05;3.05;;;31.90;47.50;;;;;;4932672;29;20067;-75
2021/07/17 09:31:54;;;;;;;7.22;3.60;;;31.80;47.10;;;;;;4930965;29;20024;-74
2021/07/17 09:34:24;;;;;;;9.25;4.70;;;31.80;47.00;;;;;;4934204;29;20052;-73
2021/07/17 09:37:07;;;;;;;6.97;3.55;;;31.80;47.00;;;;;;4933222;29;20054;-74
2021/07/17 09:39:44;;;;;;;7.40;3.92;;;31.80;46.80;;;;;;4932694;29;20155;-73
2021/07/17 09:42:19;;;;;;;6.10;3.42;;;31.80;46.90;;;;;;4914348;29;20404;-72
2021/07/17 09:44:52;;;;;;;5.13;3.80;;;31.80;47.00;;;;;;4931080;29;20031;-73
2021/07/17 09:47:19;;;;;;;11.15;3.53;;;31.70;47.00;;;;;;4932745;29;20427;-72
2021/07/17 09:49:45;;;;;;;6.70;3.72;;;31.60;47.10;;;;;;4918241;29;20036;-73
2021/07/17 09:52:11;;;;;;;6.13;3.90;;;31.50;47.40;;;;;;4913896;29;20084;-73
2021/07/17 09:55:01;;;;;;;7.85;3.53;;;31.30;47.60;;;;;;4931089;29;20047;-73
2021/07/17 09:57:30;;;;;;;5.35;3.50;;;31.20;47.80;;;;;;4907175;29;20037;-73
2021/07/17 10:00:10;;;;;;;5.05;3.20;;;31.10;48.00;;;;;;4923445;29;20133;-73
2021/07/17 10:02:36;;;;;;;8.95;3.63;;;31.10;48.20;;;;;;4931876;29;20031;-72
2021/07/17 10:05:07;;;;;;;4.65;3.05;;;31.00;48.30;;;;;;4915001;29;20153;-72
2021/07/17 10:07:34;;;;;;;4.22;3.13;;;31.00;48.30;;;;;;4914401;29;20082;-72
2021/07/17 10:10:00;;;;;;;3.30;2.80;;;31.00;48.40;;;;;;4932095;29;20047;-73
2021/07/17 10:12:37;;;;;;;6.43;3.55;;;30.90;48.50;;;;;;4931165;29;20095;-72
2021/07/17 10:15:06;;;;;;;6.82;3.67;;;30.90;48.70;;;;;;4931224;29;20032;-72
2021/07/17 10:17:34;;;;;;;5.30;3.72;;;30.90;48.70;;;;;;4929270;29;20790;-72
2021/07/17 10:20:01;;;;;;;6.18;3.15;;;30.90;48.60;;;;;;4930549;29;20027;-73
2021/07/17 10:22:27;;;;;;;6.47;3.63;;;30.90;48.70;;;;;;4916326;29;20079;-73
2021/07/17 10:24:54;;;;;;;4.90;3.10;;;30.90;48.90;;;;;;4932302;29;20074;-72
2021/07/17 10:27:20;;;;;;;5.32;3.78;;;30.90;48.90;;;;;;4932408;29;20035;-73
2021/07/17 10:29:46;;;;;;;6.03;3.20;;;30.90;49.10;;;;;;4913851;29;20028;-73
2021/07/17 10:32:12;;;;;;;5.38;3.35;;;30.90;49.10;;;;;;4913288;29;20095;-72
2021/07/17 10:34:38;;;;;;;6.28;3.50;;;31.00;49.30;;;;;;4912413;29;20028;-72
2021/07/17 10:37:17;;;;;;;9.25;3.38;;;31.00;49.30;;;;;;4913142;29;20047;-73
2021/07/17 10:39:56;;;;;;;6.00;3.33;;;31.00;49.30;;;;;;4928254;29;20149;-73
2021/07/17 10:42:23;;;;;;;7.43;3.97;;;31.10;49.40;;;;;;4914330;29;20123;-73
2021/07/17 10:44:51;;;;;;;4.63;3.65;;;31.10;49.50;;;;;;4930490;29;20091;-74
2021/07/17 10:47:19;;;;;;;6.82;4.13;;;31.10;49.60;;;;;;4930286;29;20090;-72
2021/07/17 10:49:46;;;;;;;7.90;4.05;;;31.10;49.60;;;;;;4930632;29;20436;-73
2021/07/17 10:52:13;;;;;;;6.50;3.55;;;31.10;49.60;;;;;;4931619;29;20389;-71
2021/07/17 10:54:39;;;;;;;4.75;3.63;;;31.10;49.70;;;;;;4931806;29;20303;-72
2021/07/17 10:57:07;;;;;;;4.25;3.33;;;31.10;49.80;;;;;;4931004;29;20122;-73
2021/07/17 10:59:33;;;;;;;4.25;3.28;;;31.10;50.00;;;;;;4930535;29;20067;-72
2021/07/17 11:02:02;;;;;;;5.38;2.88;;;31.10;50.00;;;;;;4932135;29;20074;-72
2021/07/17 11:04:45;;;;;;;6.13;3.33;;;31.10;49.90;;;;;;4931090;29;20043;-71
2021/07/17 11:07:17;;;;;;;;;;;31.20;49.90;;;;;;4931798;29;20059;-72
2021/07/17 11:10:10;;;;;;;6.35;3.78;;;31.30;50.00;;;;;;4930522;29;19922;-72
2021/07/17 11:12:51;;;;;;;11.35;3.63;;;31.30;49.70;;;;;;4945823;29;20067;-72
2021/07/17 11:15:18;;;;;;;7.00;2.92;;;31.40;49.60;;;;;;4931630;29;20570;-73
2021/07/17 11:17:45;;;;;;;5.28;3.03;;;31.40;49.50;;;;;;4930779;29;20531;-72
2021/07/17 11:20:21;;;;;;;6.32;3.20;;;31.50;49.60;;;;;;4930005;29;20035;-73
2021/07/17 11:23:08;;;;;;;6.63;3.08;;;31.50;49.40;;;;;;4930449;29;20118;-73
2021/07/17 11:25:35;;;;;;;8.13;3.20;;;31.60;49.40;;;;;;4929856;29;20079;-73
2021/07/17 11:28:02;;;;;;;4.13;2.92;;;31.70;49.20;;;;;;4915112;29;20480;-74
2021/07/17 11:30:34;;;;;;;5.55;2.80;;;31.80;49.20;;;;;;4907570;29;20032;-72
2021/07/17 11:33:05;;;;;;;7.38;2.72;;;31.80;49.00;;;;;;4905797;29;20031;-73
2021/07/17 11:35:40;;;;;;;5.65;3.20;;;31.90;48.90;;;;;;4930233;29;20031;-73
2021/07/17 11:38:07;;;;;;;5.68;2.58;;;31.90;48.70;;;;;;4929771;29;20032;-72
2021/07/17 11:40:35;;;;;;;5.88;2.80;;;31.90;48.50;;;;;;4930493;29;20019;-72
2021/07/17 11:43:10;;;;;;;5.85;2.55;;;32.00;48.30;;;;;;4922369;29;20371;-72
2021/07/17 11:45:37;;;;;;;6.82;2.85;;;32.00;48.10;;;;;;4912303;29;20040;-73
2021/07/17 11:48:12;;;;;;;3.05;2.17;;;32.10;48.00;;;;;;4906483;29;20025;-73
2021/07/17 11:50:39;;;;;;;3.85;2.13;;;32.10;48.00;;;;;;4892421;29;20083;-73
2021/07/17 11:53:16;;;;;;;4.72;2.58;;;32.20;48.00;;;;;;4905869;29;20395;-73
2021/07/17 11:55:43;;;;;;;5.47;2.65;;;32.20;47.80;;;;;;4930451;29;20066;-72
2021/07/17 11:58:17;;;;;;;5.30;2.63;;;32.30;47.70;;;;;;4925571;29;20037;-73
2021/07/17 12:00:43;;;;;;;5.13;2.88;;;32.30;47.50;;;;;;4909173;29;20555;-71
2021/07/17 12:03:09;;;;;;;4.05;2.80;;;32.30;47.60;;;;;;4911707;29;20472;-72
2021/07/17 12:05:36;;;;;;;5.10;2.83;;;32.30;47.70;;;;;;4909619;29;20127;-73
2021/07/17 12:08:03;;;;;;;4.13;2.67;;;32.30;47.60;;;;;;4914157;29;20043;-73
2021/07/17 12:10:29;;;;;;;7.82;3.13;;;32.30;47.60;;;;;;4932368;29;20084;-73
2021/07/17 12:13:02;;;;;;;5.75;2.50;;;32.40;47.50;;;;;;4931242;29;20406;-75
2021/07/17 12:15:35;;;;;;;;;;;32.40;47.30;;;;;;4932216;29;20055;-74
2021/07/17 12:18:12;;;;;;;3.00;2.40;;;32.40;47.60;;;;;;4931767;29;20001;-72
2021/07/17 12:20:42;;;;;;;5.88;2.63;;;32.50;47.40;;;;;;4932168;29;20118;-71
2021/07/17 12:23:14;;;;;;;6.05;2.67;;;32.50;47.20;;;;;;4932143;29;20422;-72
2021/07/17 12:25:53;;;;;;;3.10;2.35;;;32.50;47.10;;;;;;4932007;29;20020;-72
2021/07/17 12:28:34;;;;;;;2.67;2.30;;;32.50;46.90;;;;;;4946260;29;20051;-72
2021/07/17 12:31:10;;;;;;;6.93;3.03;;;32.50;47.00;;;;;;4932091;29;20039;-72
2021/07/17 12:33:37;;;;;;;7.18;2.40;;;32.60;47.10;;;;;;4930250;29;20032;-72
2021/07/17 12:36:22;;;;;;;5.50;2.22;;;32.60;47.10;;;;;;4932420;29;20038;-73
2021/07/17 12:38:52;;;;;;;4.40;2.50;;;32.60;46.90;;;;;;4930949;29;20395;-73
2021/07/17 12:41:23;;;;;;;2.60;2.30;;;32.70;46.80;;;;;;4932004;29;20079;-73
2021/07/17 12:43:59;;;;;;;3.45;2.22;;;32.70;46.60;;;;;;4931986;29;20043;-74
2021/07/17 12:46:27;;;;;;;4.45;2.38;;;32.70;46.50;;;;;;4914739;29;20031;-74
2021/07/17 12:49:11;;;;;;;6.20;2.40;;;32.80;46.50;;;;;;4946214;29;20027;-73
2021/07/17 12:51:43;;;;;;;5.07;2.47;;;32.80;46.10;;;;;;4931294;29;20064;-74